createdAt,value
2019-03-18T00:01:33.088Z,6.2
2019-03-18T00:06:33.091Z,6.2
2019-03-18T00:11:33.026Z,6.2
2019-03-18T00:16:33.087Z,6.2
2019-03-18T00:21:33.066Z,6.1
2019-03-18T00:26:32.868Z,6.1
2019-03-18T00:31:32.891Z,6
2019-03-18T00:36:32.991Z,6
2019-03-18T00:41:32.866Z,5.9
2019-03-18T00:46:33.073Z,5.9
2019-03-18T00:51:33.103Z,5.9
2019-03-18T00:56:32.893Z,5.9
2019-03-18T01:01:33.070Z,5.9
2019-03-18T01:06:32.906Z,5.9
2019-03-18T01:11:33.140Z,5.8
2019-03-18T01:16:33.073Z,5.8
2019-03-18T01:21:32.867Z,5.8
2019-03-18T01:26:32.919Z,5.8
2019-03-18T01:31:33.063Z,5.8
2019-03-18T01:36:33.108Z,5.8
2019-03-18T01:41:33.145Z,5.8
2019-03-18T01:46:33.068Z,5.8
2019-03-18T01:51:33.121Z,5.8
2019-03-18T01:56:33.150Z,5.8
2019-03-18T02:01:33.070Z,5.8
2019-03-18T02:06:33.066Z,5.8
2019-03-18T02:11:33.147Z,5.8
2019-03-18T02:16:32.943Z,5.8
2019-03-18T02:21:32.937Z,5.8
2019-03-18T02:26:33.073Z,5.8
2019-03-18T02:31:33.193Z,5.8
2019-03-18T02:36:33.102Z,5.8
2019-03-18T02:41:33.154Z,5.8
2019-03-18T02:46:32.916Z,5.8
2019-03-18T02:51:32.992Z,5.8
2019-03-18T02:56:33.148Z,5.8
2019-03-18T03:01:33.070Z,5.7
2019-03-18T03:06:33.108Z,5.7
2019-03-18T03:11:34.416Z,5.7
2019-03-18T03:16:33.140Z,5.7
2019-03-18T03:21:33.217Z,5.7
2019-03-18T03:26:33.131Z,5.7
2019-03-18T03:31:33.181Z,5.7
2019-03-18T03:36:32.994Z,5.7
2019-03-18T03:41:33.116Z,5.6
2019-03-18T03:46:42.713Z,5.6
2019-03-18T03:51:33.215Z,5.6
2019-03-18T03:56:32.987Z,5.6
2019-03-18T04:01:33.190Z,5.6
2019-03-18T04:06:32.994Z,5.6
2019-03-18T04:11:33.003Z,5.6
2019-03-18T04:16:33.193Z,5.5
2019-03-18T04:21:33.006Z,5.5
2019-03-18T04:26:33.006Z,5.5
2019-03-18T04:31:33.020Z,5.5
2019-03-18T04:36:33.236Z,5.4
2019-03-18T04:41:33.262Z,5.4
2019-03-18T04:46:33.153Z,5.4
2019-03-18T04:51:33.012Z,5.4
2019-03-18T04:56:33.024Z,5.3
2019-03-18T05:01:33.038Z,5.3
2019-03-18T05:06:33.237Z,5.3
2019-03-18T05:11:33.039Z,5.2
2019-03-18T05:16:33.025Z,5.2
2019-03-18T05:21:33.039Z,5.2
2019-03-18T05:26:33.045Z,5.2
2019-03-18T05:31:33.182Z,5.2
2019-03-18T05:36:33.061Z,5.2
2019-03-18T05:41:33.055Z,5.2
2019-03-18T05:46:33.072Z,5.2
2019-03-18T05:51:33.056Z,5.2
2019-03-18T05:56:33.274Z,5.2
2019-03-18T06:01:33.020Z,5.2
2019-03-18T06:06:33.219Z,5.2
2019-03-18T06:11:33.080Z,5.2
2019-03-18T06:16:33.183Z,5.3
2019-03-18T06:21:33.088Z,5.3
2019-03-18T06:26:33.251Z,5.3
2019-03-18T06:31:33.307Z,5.3
2019-03-18T06:36:33.222Z,5.4
2019-03-18T06:41:33.253Z,5.4
2019-03-18T06:46:33.076Z,5.4
2019-03-18T06:51:33.221Z,5.4
2019-03-18T06:56:33.090Z,5.4
2019-03-18T07:01:33.085Z,5.5
2019-03-18T07:06:33.219Z,5.5
2019-03-18T07:11:33.107Z,5.5
2019-03-18T07:16:33.306Z,5.6
2019-03-18T07:21:33.100Z,5.6
2019-03-18T07:26:33.217Z,5.6
2019-03-18T07:31:33.126Z,5.7
2019-03-18T07:36:33.067Z,5.7
2019-03-18T07:41:33.112Z,5.7
2019-03-18T07:46:33.243Z,5.8
2019-03-18T07:51:33.338Z,5.8
2019-03-18T07:56:33.130Z,5.9
2019-03-18T08:01:33.297Z,6
2019-03-18T08:06:33.088Z,6
2019-03-18T08:11:33.113Z,6.1
2019-03-18T08:16:33.291Z,6.2
2019-03-18T08:21:34.350Z,6.2
2019-03-18T08:26:33.371Z,6.3
2019-03-18T08:31:33.292Z,6.2
2019-03-18T08:36:33.139Z,6.3
2019-03-18T08:41:33.162Z,6.3
2019-03-18T08:46:33.294Z,6.4
2019-03-18T08:51:33.329Z,6.5
2019-03-18T08:56:33.376Z,6.5
2019-03-18T09:01:33.294Z,6.6
2019-03-18T09:06:33.338Z,6.6
2019-03-18T09:11:33.378Z,6.7
2019-03-18T09:16:33.176Z,6.8
2019-03-18T09:21:33.332Z,6.8
2019-03-18T09:26:33.394Z,6.9
2019-03-18T09:31:33.185Z,6.9
2019-03-18T09:36:33.187Z,6.9
2019-03-18T09:41:33.386Z,7
2019-03-18T09:46:33.414Z,7
2019-03-18T09:51:33.332Z,7
2019-03-18T09:56:33.181Z,7.1
2019-03-18T10:01:33.416Z,7
2019-03-18T10:06:33.149Z,7
2019-03-18T10:11:33.148Z,7
2019-03-18T10:16:33.193Z,7
2019-03-18T10:21:33.333Z,7
2019-03-18T10:26:33.336Z,7
2019-03-18T10:31:33.304Z,7.1
2019-03-18T10:36:33.171Z,7.2
2019-03-18T10:41:33.225Z,7.2
2019-03-18T10:46:33.213Z,7.2
2019-03-18T10:51:33.501Z,7.3
2019-03-18T10:56:33.375Z,7.4
2019-03-18T11:01:33.375Z,7.4
2019-03-18T11:06:33.457Z,7.4
2019-03-18T11:11:33.368Z,7.4
2019-03-18T11:16:33.419Z,7.3
2019-03-18T11:21:33.461Z,7.4
2019-03-18T11:26:33.377Z,7.6
2019-03-18T11:31:33.205Z,7.6
2019-03-18T11:36:33.446Z,7.7
2019-03-18T11:41:33.368Z,7.6
2019-03-18T11:46:33.242Z,7.6
2019-03-18T11:51:33.446Z,7.7
2019-03-18T11:56:33.261Z,7.7
2019-03-18T12:01:33.411Z,7.6
2019-03-18T12:06:33.248Z,7.6
2019-03-18T12:11:33.252Z,7.6
2019-03-18T12:16:33.261Z,7.5
2019-03-18T12:21:33.259Z,7.4
2019-03-18T12:26:33.492Z,7.5
2019-03-18T12:31:33.418Z,7.5
2019-03-18T12:36:33.294Z,7.4
2019-03-18T12:41:33.487Z,7.5
2019-03-18T12:46:33.302Z,7.6
2019-03-18T12:51:33.451Z,7.5
2019-03-18T12:56:33.652Z,7.6
2019-03-18T13:01:33.677Z,7.6
2019-03-18T13:06:33.867Z,7.6
2019-03-18T13:11:33.789Z,7.6
2019-03-18T13:16:33.681Z,7.5
2019-03-18T13:21:33.875Z,7.5
2019-03-18T13:26:33.687Z,7.4
2019-03-18T13:31:33.686Z,7.4
2019-03-18T13:36:33.878Z,7.3
2019-03-18T13:41:33.680Z,7.3
2019-03-18T13:46:33.820Z,7.2
2019-03-18T13:51:33.759Z,7.2
2019-03-18T13:56:33.691Z,7.2
2019-03-18T14:01:33.822Z,7.1
2019-03-18T14:06:33.805Z,7.1
2019-03-18T14:11:33.715Z,7
2019-03-18T14:16:33.721Z,7
2019-03-18T14:21:33.868Z,7.1
2019-03-18T14:26:33.734Z,7.1
2019-03-18T14:31:33.667Z,7.1
2019-03-18T14:36:33.774Z,7.1
2019-03-18T14:41:33.677Z,7.1
2019-03-18T14:46:33.713Z,7.1
2019-03-18T14:51:45.278Z,7.2
2019-03-18T14:56:33.949Z,7.3
2019-03-18T15:01:33.833Z,7.3
2019-03-18T15:06:33.875Z,7.4
2019-03-18T15:11:33.732Z,7.4
2019-03-18T15:16:33.944Z,6.9
2019-03-18T15:21:33.864Z,6.6
2019-03-18T15:26:33.761Z,6.5
2019-03-18T15:31:33.941Z,6.5
2019-03-18T15:36:33.976Z,6.5
2019-03-18T15:41:33.896Z,6.6
2019-03-18T15:46:33.955Z,6.6
2019-03-18T15:51:34.030Z,6.5
2019-03-18T15:56:33.858Z,6.4
2019-03-18T16:01:33.957Z,6.2
2019-03-18T16:06:33.774Z,6.2
2019-03-18T16:11:33.860Z,6.2
2019-03-18T16:16:33.727Z,6.2
2019-03-18T16:21:33.759Z,6.2
2019-03-18T16:26:33.898Z,6.1
2019-03-18T16:31:33.934Z,6.1
2019-03-18T16:36:33.768Z,6.1
2019-03-18T16:41:33.767Z,6.1
2019-03-18T16:46:33.803Z,6
2019-03-18T16:51:33.791Z,5.9
2019-03-18T16:56:33.783Z,5.8
2019-03-18T17:01:33.809Z,5.7
2019-03-18T17:06:33.788Z,5.7
2019-03-18T17:11:33.795Z,5.6
2019-03-18T17:16:33.793Z,5.5
2019-03-18T17:21:33.808Z,5.4
2019-03-18T17:26:33.816Z,5.3
2019-03-18T17:31:33.892Z,5.2
2019-03-18T17:36:33.915Z,5.1
2019-03-18T17:41:33.832Z,5
2019-03-18T17:46:33.818Z,4.9
2019-03-18T17:51:33.826Z,4.8
2019-03-18T17:56:33.794Z,4.7
2019-03-18T18:01:33.818Z,4.7
2019-03-18T18:06:33.837Z,4.7
2019-03-18T18:11:33.990Z,4.5
2019-03-18T18:16:33.815Z,4.6
2019-03-18T18:21:33.819Z,4.5
2019-03-18T18:26:34.045Z,4.5
2019-03-18T18:31:34.075Z,4.2
2019-03-18T18:36:34.057Z,4
2019-03-18T18:41:34.019Z,4
2019-03-18T18:46:33.958Z,3.9
2019-03-18T18:51:33.848Z,3.8
2019-03-18T18:56:33.871Z,3.8
2019-03-18T19:01:34.018Z,3.7
2019-03-18T19:06:33.861Z,3.6
2019-03-18T19:11:33.850Z,3.6
2019-03-18T19:16:33.852Z,3.5
2019-03-18T19:21:33.902Z,3.5
2019-03-18T19:26:33.866Z,3.4
2019-03-18T19:31:33.901Z,3.3
2019-03-18T19:36:33.902Z,3.2
2019-03-18T19:41:34.074Z,3.1
2019-03-18T19:46:33.883Z,3
2019-03-18T19:51:33.863Z,2.9
2019-03-18T19:56:33.889Z,2.8
2019-03-18T20:01:33.983Z,2.6
2019-03-18T20:06:34.073Z,2.5
2019-03-18T20:11:33.911Z,2.5
2019-03-18T20:16:33.913Z,2.4
2019-03-18T20:21:33.994Z,2.3
2019-03-18T20:26:34.130Z,2.3
2019-03-18T20:31:34.040Z,2.3
2019-03-18T20:36:33.929Z,2.2
2019-03-18T20:41:33.994Z,2.2
2019-03-18T20:46:33.956Z,2.1
2019-03-18T20:51:33.982Z,2.1
2019-03-18T20:56:33.906Z,2.1
2019-03-18T21:01:33.964Z,2.1
2019-03-18T21:06:33.910Z,2.1
2019-03-18T21:11:33.926Z,2.1
2019-03-18T21:16:33.933Z,2.1
2019-03-18T21:21:33.919Z,2.1
2019-03-18T21:26:33.867Z,2
2019-03-18T21:31:33.925Z,2
2019-03-18T21:36:38.014Z,1.9
2019-03-18T21:41:34.041Z,1.8
2019-03-18T21:46:33.940Z,1.8
2019-03-18T21:51:33.945Z,1.7
2019-03-18T21:56:33.945Z,1.7
2019-03-18T22:01:33.940Z,1.6
2019-03-18T22:06:33.940Z,1.6
2019-03-18T22:11:33.950Z,1.6
2019-03-18T22:16:33.965Z,1.7
2019-03-18T22:21:33.948Z,1.7
2019-03-18T22:26:33.960Z,1.7
2019-03-18T22:31:33.950Z,1.7
2019-03-18T22:36:33.960Z,1.7
2019-03-18T22:41:34.148Z,1.7
2019-03-18T22:46:34.182Z,1.6
2019-03-18T22:51:33.937Z,1.6
2019-03-18T22:56:34.153Z,1.6
2019-03-18T23:01:34.194Z,1.5
2019-03-18T23:06:33.972Z,1.5
2019-03-18T23:11:33.950Z,1.4
2019-03-18T23:16:33.976Z,1.4
2019-03-18T23:21:33.984Z,1.4
2019-03-18T23:26:33.998Z,1.4
2019-03-18T23:31:33.941Z,1.4
2019-03-18T23:36:33.980Z,1.4
2019-03-18T23:41:33.971Z,1.4
2019-03-18T23:46:34.180Z,1.4
2019-03-18T23:51:33.985Z,1.3
2019-03-18T23:56:34.013Z,1.3
